createdAt,value
2018-07-13T00:00:41.646Z,35.50
2018-07-13T00:01:44.752Z,38.25
2018-07-13T00:02:47.529Z,32.25
2018-07-13T00:03:50.329Z,34.75
2018-07-13T00:04:53.762Z,32.75
2018-07-13T00:05:57.109Z,33.25
2018-07-13T00:07:00.183Z,36.00
2018-07-13T00:08:04.073Z,37.50
2018-07-13T00:09:09.970Z,33.00
2018-07-13T00:10:12.824Z,28.75
2018-07-13T00:11:17.546Z,32.25
2018-07-13T00:12:21.941Z,32.75
2018-07-13T00:13:25.282Z,36.50
2018-07-13T00:14:29.302Z,34.25
2018-07-13T00:15:34.216Z,37.00
2018-07-13T00:16:37.046Z,31.00
2018-07-13T00:17:40.805Z,31.00
2018-07-13T00:18:44.008Z,33.00
2018-07-13T00:19:46.922Z,37.50
2018-07-13T00:20:50.214Z,34.25
2018-07-13T00:21:53.197Z,34.25
2018-07-13T00:22:55.983Z,35.25
2018-07-13T00:24:00.438Z,30.75
2018-07-13T00:25:03.244Z,36.50
2018-07-13T00:26:07.885Z,35.25
2018-07-13T00:27:12.593Z,32.50
2018-07-13T00:28:15.669Z,31.50
2018-07-13T00:29:18.439Z,28.75
2018-07-13T00:30:21.467Z,33.75
2018-07-13T00:31:24.380Z,36.75
2018-07-13T00:32:27.866Z,32.75
2018-07-13T00:33:31.018Z,34.50
2018-07-13T00:34:34.610Z,30.00
2018-07-13T00:35:37.395Z,32.50
2018-07-13T00:36:40.197Z,34.75
2018-07-13T00:37:43.281Z,33.50
2018-07-13T00:38:46.798Z,30.00
2018-07-13T00:39:49.948Z,32.75
2018-07-13T00:40:52.774Z,37.00
2018-07-13T00:41:55.580Z,35.00
2018-07-13T00:42:58.394Z,30.75
2018-07-13T00:44:01.816Z,37.50
2018-07-13T00:45:04.611Z,33.00
2018-07-13T00:46:08.644Z,30.50
2018-07-13T00:47:11.783Z,35.00
2018-07-13T00:48:15.385Z,31.75
2018-07-13T00:49:20.256Z,33.00
2018-07-13T00:50:23.143Z,34.00
2018-07-13T00:51:25.941Z,37.25
2018-07-13T00:52:30.499Z,33.75
2018-07-13T00:53:33.330Z,33.00
2018-07-13T00:54:36.941Z,34.75
2018-07-13T00:55:39.715Z,34.25
2018-07-13T00:56:42.465Z,33.75
2018-07-13T00:57:45.500Z,33.25
2018-07-13T00:58:49.336Z,36.75
2018-07-13T00:59:53.069Z,33.50
2018-07-13T01:00:56.367Z,28.75
2018-07-13T01:01:59.329Z,38.00
2018-07-13T01:03:03.843Z,32.25
2018-07-13T01:04:07.295Z,31.00
2018-07-13T01:05:10.513Z,36.00
2018-07-13T01:06:13.301Z,33.00
2018-07-13T01:07:16.088Z,33.25
2018-07-13T01:08:18.932Z,33.00
2018-07-13T01:09:23.116Z,32.25
2018-07-13T01:10:27.658Z,35.50
2018-07-13T01:11:30.486Z,32.50
2018-07-13T01:12:33.263Z,36.50
2018-07-13T01:13:36.366Z,34.75
2018-07-13T01:14:39.595Z,32.00
2018-07-13T01:15:42.422Z,33.50
2018-07-13T01:16:45.906Z,32.75
2018-07-13T01:17:49.136Z,30.75
2018-07-13T01:18:51.915Z,31.50
2018-07-13T01:19:54.742Z,33.00
2018-07-13T01:20:57.517Z,38.00
2018-07-13T01:22:00.301Z,31.25
2018-07-13T01:23:03.099Z,30.50
2018-07-13T01:24:06.345Z,28.50
2018-07-13T01:25:09.401Z,33.50
2018-07-13T01:26:12.210Z,29.25
2018-07-13T01:27:15.135Z,32.25
2018-07-13T01:28:17.913Z,33.75
2018-07-13T01:29:21.577Z,30.75
2018-07-13T01:30:24.828Z,29.75
2018-07-13T01:31:27.626Z,30.75
2018-07-13T01:32:30.390Z,29.25
2018-07-13T01:33:34.296Z,29.00
2018-07-13T01:34:37.077Z,32.25
2018-07-13T01:35:39.842Z,28.00
2018-07-13T01:36:43.056Z,35.25
2018-07-13T01:37:45.926Z,32.50
2018-07-13T01:38:48.681Z,29.00
2018-07-13T01:39:51.568Z,35.00
2018-07-13T01:40:54.699Z,34.00
2018-07-13T01:41:57.703Z,32.25
2018-07-13T01:43:00.769Z,41.00
2018-07-13T01:44:03.538Z,33.50
2018-07-13T01:45:06.321Z,34.75
2018-07-13T01:46:09.482Z,32.75
2018-07-13T01:47:12.251Z,36.25
2018-07-13T01:48:15.458Z,34.75
2018-07-13T01:49:18.564Z,33.25
2018-07-13T01:50:21.355Z,32.50
2018-07-13T01:51:24.720Z,34.75
2018-07-13T01:52:27.570Z,37.00
2018-07-13T01:53:30.353Z,38.50
2018-07-13T01:54:33.283Z,31.25
2018-07-13T01:55:36.406Z,27.50
2018-07-13T01:56:41.072Z,30.75
2018-07-13T01:57:43.839Z,36.25
2018-07-13T01:58:47.260Z,34.00
2018-07-13T01:59:50.059Z,30.00
2018-07-13T02:00:53.260Z,34.25
2018-07-13T02:01:56.525Z,30.50
2018-07-13T02:02:59.314Z,35.75
2018-07-13T02:04:03.762Z,31.00
2018-07-13T02:05:06.694Z,38.00
2018-07-13T02:06:09.799Z,29.75
2018-07-13T02:07:13.643Z,31.75
2018-07-13T02:08:16.736Z,30.75
2018-07-13T02:09:19.703Z,28.50
2018-07-13T02:10:23.560Z,31.00
2018-07-13T02:11:26.400Z,33.00
2018-07-13T02:12:29.195Z,32.00
2018-07-13T02:13:32.842Z,29.25
2018-07-13T02:14:36.255Z,26.50
2018-07-13T02:15:40.542Z,37.50
2018-07-13T02:16:43.635Z,32.00
2018-07-13T02:17:46.739Z,28.75
2018-07-13T02:18:49.895Z,26.50
2018-07-13T02:19:53.337Z,22.25
2018-07-13T02:20:56.402Z,29.25
2018-07-13T02:21:59.185Z,28.00
2018-07-13T02:23:02.635Z,32.50
2018-07-13T02:24:05.717Z,32.00
2018-07-13T02:25:08.529Z,29.00
2018-07-13T02:26:11.304Z,35.75
2018-07-13T02:27:14.775Z,28.75
2018-07-13T02:28:18.745Z,29.50
2018-07-13T02:29:22.324Z,30.75
2018-07-13T02:30:25.616Z,29.25
2018-07-13T02:31:28.599Z,30.00
2018-07-13T02:32:32.010Z,36.00
2018-07-13T02:33:35.083Z,30.25
2018-07-13T02:34:38.200Z,35.75
2018-07-13T02:35:41.043Z,29.00
2018-07-13T02:36:44.078Z,33.00
2018-07-13T02:37:46.854Z,38.00
2018-07-13T02:38:49.672Z,28.50
2018-07-13T02:39:52.756Z,34.50
2018-07-13T02:40:55.872Z,33.25
2018-07-13T02:41:58.662Z,34.25
2018-07-13T02:43:01.757Z,32.50
2018-07-13T02:44:04.886Z,36.50
2018-07-13T02:45:07.697Z,31.50
2018-07-13T02:46:10.934Z,33.00
2018-07-13T02:47:14.075Z,31.25
2018-07-13T02:48:16.842Z,30.50
2018-07-13T02:49:20.477Z,36.75
2018-07-13T02:50:23.817Z,29.00
2018-07-13T02:51:26.626Z,33.75
2018-07-13T02:52:29.974Z,32.00
2018-07-13T02:53:34.565Z,32.00
2018-07-13T02:54:38.389Z,35.00
2018-07-13T02:55:41.197Z,29.00
2018-07-13T02:56:44.393Z,34.25
2018-07-13T02:57:47.191Z,30.75
2018-07-13T02:58:50.285Z,32.25
2018-07-13T02:59:53.066Z,30.00
2018-07-13T03:00:55.866Z,28.50
2018-07-13T03:01:59.965Z,32.50
2018-07-13T03:03:02.980Z,30.25
2018-07-13T03:04:06.284Z,31.75
2018-07-13T03:05:09.386Z,31.75
2018-07-13T03:06:12.191Z,29.75
2018-07-13T03:07:16.554Z,26.75
2018-07-13T03:08:19.351Z,29.50
2018-07-13T03:09:22.502Z,27.75
2018-07-13T03:10:25.318Z,30.50
2018-07-13T03:11:28.931Z,28.25
2018-07-13T03:12:32.321Z,29.50
2018-07-13T03:13:35.148Z,32.50
2018-07-13T03:14:38.585Z,33.25
2018-07-13T03:15:41.418Z,28.75
2018-07-13T03:16:44.262Z,30.00
2018-07-13T03:17:47.341Z,31.25
2018-07-13T03:18:50.135Z,27.75
2018-07-13T03:19:52.943Z,33.50
2018-07-13T03:20:55.986Z,31.25
2018-07-13T03:21:59.373Z,30.25
2018-07-13T03:23:02.959Z,37.25
2018-07-13T03:24:06.075Z,26.50
2018-07-13T03:25:09.088Z,27.00
2018-07-13T03:26:12.236Z,24.00
2018-07-13T03:27:15.032Z,31.25
2018-07-13T03:28:18.009Z,31.25
2018-07-13T03:29:20.821Z,31.75
2018-07-13T03:30:23.923Z,28.50
2018-07-13T03:31:27.109Z,29.50
2018-07-13T03:32:29.900Z,34.25
2018-07-13T03:33:32.665Z,28.25
2018-07-13T03:34:35.447Z,31.25
2018-07-13T03:35:38.235Z,35.75
2018-07-13T03:36:41.303Z,31.00
2018-07-13T03:37:44.310Z,28.75
2018-07-13T03:38:47.269Z,25.75
2018-07-13T03:39:50.040Z,33.00
2018-07-13T03:40:53.271Z,26.00
2018-07-13T03:41:56.136Z,29.25
2018-07-13T03:42:59.237Z,29.75
2018-07-13T03:44:02.170Z,30.00
2018-07-13T03:45:04.982Z,29.00
2018-07-13T03:46:07.974Z,29.25
2018-07-13T03:47:11.141Z,30.25
2018-07-13T03:48:14.898Z,29.50
2018-07-13T03:49:17.869Z,29.75
2018-07-13T03:50:20.677Z,28.50
2018-07-13T03:51:23.451Z,31.75
2018-07-13T03:52:26.615Z,29.50
2018-07-13T03:53:29.413Z,29.75
2018-07-13T03:54:32.489Z,30.50
2018-07-13T03:55:35.337Z,29.50
2018-07-13T03:56:39.220Z,27.50
2018-07-13T03:57:42.032Z,29.50
2018-07-13T03:58:44.839Z,30.25
2018-07-13T03:59:47.609Z,29.50
2018-07-13T04:00:50.711Z,31.75
2018-07-13T04:01:53.503Z,33.50
2018-07-13T04:02:56.982Z,31.50
2018-07-13T04:03:59.759Z,27.50
2018-07-13T04:05:02.883Z,36.00
2018-07-13T04:06:05.676Z,30.00
2018-07-13T04:07:08.881Z,28.50
2018-07-13T04:08:11.824Z,29.50
2018-07-13T04:09:14.645Z,26.25
2018-07-13T04:10:18.334Z,28.25
2018-07-13T04:11:21.112Z,29.00
2018-07-13T04:12:23.896Z,27.25
2018-07-13T04:13:26.973Z,35.00
2018-07-13T04:14:29.761Z,29.00
2018-07-13T04:15:32.559Z,29.00
2018-07-13T04:16:37.307Z,32.75
2018-07-13T04:17:40.098Z,30.75
2018-07-13T04:18:42.925Z,29.75
2018-07-13T04:19:46.012Z,30.50
2018-07-13T04:20:49.227Z,31.75
2018-07-13T04:21:52.106Z,29.25
2018-07-13T04:22:55.069Z,30.25
2018-07-13T04:23:57.964Z,27.25
2018-07-13T04:25:00.829Z,28.75
2018-07-13T04:26:03.927Z,29.25
2018-07-13T04:27:06.698Z,33.75
2018-07-13T04:28:09.688Z,28.25
2018-07-13T04:29:12.504Z,25.00
2018-07-13T04:30:15.859Z,28.00
2018-07-13T04:31:19.239Z,32.25
2018-07-13T04:32:22.868Z,27.00
2018-07-13T04:33:25.836Z,26.25
2018-07-13T04:34:28.699Z,30.75
2018-07-13T04:35:31.504Z,24.00
2018-07-13T04:36:34.268Z,26.25
2018-07-13T04:37:37.115Z,28.50
2018-07-13T04:38:40.178Z,32.25
2018-07-13T04:39:44.895Z,30.75
2018-07-13T04:40:47.680Z,31.50
2018-07-13T04:41:50.467Z,28.50
2018-07-13T04:42:53.311Z,30.25
2018-07-13T04:43:56.177Z,27.25
2018-07-13T04:45:00.810Z,35.25
2018-07-13T04:46:03.665Z,28.50
2018-07-13T04:47:06.492Z,28.25
2018-07-13T04:48:09.299Z,32.50
2018-07-13T04:49:13.429Z,32.50
2018-07-13T04:50:16.319Z,31.25
2018-07-13T04:51:19.357Z,28.50
2018-07-13T04:52:22.347Z,28.75
2018-07-13T04:53:25.163Z,30.50
2018-07-13T04:54:28.203Z,27.00
2018-07-13T04:55:31.115Z,31.00
2018-07-13T04:56:35.506Z,30.00
2018-07-13T04:57:38.584Z,31.25
2018-07-13T04:58:41.378Z,30.75
2018-07-13T04:59:44.283Z,29.75
2018-07-13T05:00:47.091Z,31.00
2018-07-13T05:01:50.392Z,35.00
2018-07-13T05:02:53.290Z,28.25
2018-07-13T05:03:56.664Z,28.75
2018-07-13T05:04:59.444Z,30.50
2018-07-13T05:06:02.235Z,31.75
2018-07-13T05:07:05.011Z,33.25
2018-07-13T05:08:08.989Z,34.50
2018-07-13T05:09:12.706Z,33.00
2018-07-13T05:10:16.018Z,31.50
2018-07-13T05:11:19.724Z,39.00
2018-07-13T05:12:22.753Z,30.75
2018-07-13T05:13:25.651Z,30.75
2018-07-13T05:14:28.493Z,29.25
2018-07-13T05:15:31.648Z,28.00
2018-07-13T05:16:34.775Z,33.00
2018-07-13T05:17:38.558Z,30.50
2018-07-13T05:18:41.326Z,28.00
2018-07-13T05:19:44.146Z,32.00
2018-07-13T05:20:47.014Z,27.75
2018-07-13T05:21:49.866Z,33.25
2018-07-13T05:22:53.075Z,29.00
2018-07-13T05:23:57.054Z,29.75
2018-07-13T05:24:59.880Z,25.50
2018-07-13T05:26:02.638Z,35.25
2018-07-13T05:27:06.018Z,27.00
2018-07-13T05:28:08.832Z,31.25
2018-07-13T05:29:12.169Z,34.00
2018-07-13T05:30:16.315Z,31.25
2018-07-13T05:31:19.114Z,30.50
2018-07-13T05:32:21.917Z,29.25
2018-07-13T05:33:25.412Z,31.25
2018-07-13T05:34:28.326Z,31.50
2018-07-13T05:35:31.640Z,34.50
2018-07-13T05:36:34.461Z,33.00
2018-07-13T05:37:38.417Z,31.50
2018-07-13T05:38:42.979Z,38.00
2018-07-13T05:39:46.190Z,48.00
2018-07-13T05:40:49.555Z,31.75
2018-07-13T05:41:52.976Z,36.00
2018-07-13T05:42:55.879Z,32.25
2018-07-13T05:43:58.699Z,35.25
2018-07-13T05:45:01.506Z,31.00
2018-07-13T05:46:04.366Z,35.75
2018-07-13T05:47:07.168Z,41.50
2018-07-13T05:48:11.395Z,38.75
2018-07-13T05:49:14.238Z,37.50
2018-07-13T05:50:17.191Z,32.75
2018-07-13T05:51:20.020Z,35.25
2018-07-13T05:52:22.910Z,32.00
2018-07-13T05:53:25.745Z,35.25
2018-07-13T05:54:28.909Z,31.00
2018-07-13T05:55:31.851Z,33.00
2018-07-13T05:56:35.431Z,37.00
2018-07-13T05:57:38.594Z,33.25
2018-07-13T05:58:42.832Z,31.75
2018-07-13T05:59:46.580Z,38.00
2018-07-13T06:00:49.865Z,36.50
2018-07-13T06:01:52.707Z,32.25
2018-07-13T06:02:55.571Z,35.00
2018-07-13T06:03:58.397Z,32.25
2018-07-13T06:05:01.245Z,35.00
2018-07-13T06:06:04.935Z,35.00
2018-07-13T06:07:08.254Z,48.00
2018-07-13T06:08:11.082Z,53.25
2018-07-13T06:09:14.270Z,44.50
2018-07-13T06:10:17.111Z,43.50
2018-07-13T06:11:19.918Z,44.75
2018-07-13T06:12:23.215Z,44.50
2018-07-13T06:13:27.847Z,39.25
2018-07-13T06:14:30.738Z,42.25
2018-07-13T06:15:35.021Z,43.50
2018-07-13T06:16:38.304Z,38.50
2018-07-13T06:17:41.537Z,43.25
2018-07-13T06:18:44.849Z,38.25
2018-07-13T06:21:00.899Z,36.50
2018-07-13T06:22:03.788Z,41.50
2018-07-13T06:23:06.651Z,42.75
2018-07-13T06:24:11.354Z,44.00
2018-07-13T06:25:15.455Z,47.50
2018-07-13T06:26:18.280Z,47.75
2018-07-13T06:27:21.313Z,37.50
2018-07-13T06:28:24.183Z,40.50
2018-07-13T06:29:28.037Z,42.25
2018-07-13T06:30:31.164Z,39.75
2018-07-13T06:31:34.415Z,42.25
2018-07-13T06:32:38.183Z,36.50
2018-07-13T06:33:41.028Z,39.50
2018-07-13T06:34:43.917Z,37.75
2018-07-13T06:35:46.688Z,45.00
2018-07-13T06:36:49.501Z,37.25
2018-07-13T06:37:52.591Z,40.25
2018-07-13T06:38:56.364Z,41.00
2018-07-13T06:39:59.201Z,45.75
2018-07-13T06:41:02.013Z,43.25
2018-07-13T06:42:04.849Z,41.00
2018-07-13T06:43:07.663Z,42.25
2018-07-13T06:44:10.734Z,41.75
2018-07-13T06:45:13.531Z,36.75
2018-07-13T06:46:16.343Z,42.25
2018-07-13T06:47:19.972Z,39.25
2018-07-13T06:48:22.799Z,38.00
2018-07-13T06:49:25.576Z,40.75
2018-07-13T06:50:28.725Z,41.50
2018-07-13T06:51:32.162Z,39.50
2018-07-13T06:52:34.946Z,38.00
2018-07-13T06:53:37.731Z,40.00
2018-07-13T06:54:40.549Z,41.00
2018-07-13T06:55:43.491Z,39.75
2018-07-13T06:56:46.711Z,40.00
2018-07-13T06:57:49.548Z,40.50
2018-07-13T06:58:52.465Z,38.50
2018-07-13T06:59:55.279Z,40.50
2018-07-13T07:01:13.862Z,40.75
2018-07-13T07:02:16.976Z,41.00
2018-07-13T07:03:19.899Z,38.75
2018-07-13T07:04:24.315Z,41.75
2018-07-13T07:05:27.148Z,40.00
2018-07-13T07:06:30.012Z,40.25
2018-07-13T07:07:32.903Z,41.50
2018-07-13T07:08:36.028Z,37.25
2018-07-13T07:09:38.854Z,38.75
2018-07-13T07:10:42.969Z,39.00
2018-07-13T07:11:45.906Z,46.50
2018-07-13T07:12:49.306Z,36.00
2018-07-13T07:13:53.271Z,39.75
2018-07-13T07:14:58.201Z,34.50
2018-07-13T07:16:02.385Z,34.75
2018-07-13T07:17:05.878Z,36.50
2018-07-13T07:18:08.960Z,30.75
2018-07-13T07:19:11.767Z,33.75
2018-07-13T07:20:14.970Z,37.00
2018-07-13T07:21:19.723Z,31.75
2018-07-13T07:22:22.552Z,34.25
2018-07-13T07:23:25.404Z,38.00
2018-07-13T07:24:28.355Z,34.25
2018-07-13T07:25:32.554Z,30.75
2018-07-13T07:26:35.989Z,31.00
2018-07-13T07:27:39.763Z,34.25
2018-07-13T07:28:42.560Z,30.25
2018-07-13T07:29:46.132Z,38.75
2018-07-13T07:30:49.000Z,36.50
2018-07-13T07:31:51.867Z,27.75
2018-07-13T07:32:54.695Z,26.75
2018-07-13T07:33:58.612Z,31.50
2018-07-13T07:35:01.857Z,34.25
2018-07-13T07:36:05.165Z,30.50
2018-07-13T07:37:08.010Z,31.50
2018-07-13T07:38:14.141Z,26.25
2018-07-13T07:39:16.932Z,28.00
2018-07-13T07:40:20.212Z,31.00
2018-07-13T07:41:23.041Z,28.00
2018-07-13T07:42:25.937Z,30.00
2018-07-13T07:43:28.750Z,27.75
2018-07-13T07:44:31.582Z,28.75
2018-07-13T07:45:34.393Z,36.00
2018-07-13T07:46:38.838Z,27.00
2018-07-13T07:47:42.476Z,27.50
2018-07-13T07:48:45.367Z,27.50
2018-07-13T07:49:48.318Z,30.25
2018-07-13T07:50:51.139Z,27.75
2018-07-13T07:51:54.088Z,28.00
2018-07-13T07:52:57.215Z,26.75
2018-07-13T07:54:00.107Z,23.75
2018-07-13T07:55:02.954Z,25.00
2018-07-13T07:56:06.592Z,20.25
2018-07-13T07:57:09.970Z,23.00
2018-07-13T07:58:13.010Z,21.75
2018-07-13T07:59:16.108Z,19.25
2018-07-13T08:00:18.936Z,21.50
2018-07-13T08:01:21.748Z,21.00
2018-07-13T08:02:24.710Z,24.00
2018-07-13T08:03:27.624Z,18.00
2018-07-13T08:04:30.449Z,19.50
2018-07-13T08:05:33.780Z,21.00
2018-07-13T08:06:39.784Z,21.25
2018-07-13T08:07:42.686Z,18.50
2018-07-13T08:08:45.426Z,20.50
2018-07-13T08:09:48.237Z,16.50
2018-07-13T08:10:51.185Z,21.25
2018-07-13T08:11:55.126Z,21.00
2018-07-13T08:12:57.958Z,20.50
2018-07-13T08:14:00.954Z,17.75
2018-07-13T08:15:04.515Z,18.50
2018-07-13T08:16:07.385Z,20.25
2018-07-13T08:17:10.237Z,20.50
2018-07-13T08:18:13.055Z,17.50
2018-07-13T08:19:15.955Z,18.50
2018-07-13T08:20:18.830Z,21.50
2018-07-13T08:21:21.707Z,19.50
2018-07-13T08:22:25.581Z,16.75
2018-07-13T08:23:28.699Z,21.25
2018-07-13T08:24:31.926Z,17.00
2018-07-13T08:25:34.749Z,17.25
2018-07-13T08:26:37.806Z,17.75
2018-07-13T08:27:41.559Z,18.75
2018-07-13T08:28:44.499Z,20.50
2018-07-13T08:29:47.646Z,17.00
2018-07-13T08:30:51.195Z,17.00
2018-07-13T08:31:54.039Z,16.75
2018-07-13T08:32:56.927Z,16.25
2018-07-13T08:33:59.947Z,15.50
2018-07-13T08:35:02.883Z,19.00
2018-07-13T08:36:06.005Z,15.25
2018-07-13T08:37:08.891Z,20.50
2018-07-13T08:38:11.754Z,15.50
2018-07-13T08:39:16.621Z,15.50
2018-07-13T08:40:19.479Z,15.50
2018-07-13T08:41:23.049Z,13.00
2018-07-13T08:42:27.483Z,18.75
2018-07-13T08:43:30.377Z,16.00
2018-07-13T08:44:37.580Z,15.50
2018-07-13T08:45:42.004Z,13.00
2018-07-13T08:46:47.670Z,17.25
2018-07-13T08:47:50.841Z,13.25
2018-07-13T08:48:54.411Z,13.75
2018-07-13T08:49:58.224Z,16.50
2018-07-13T08:51:05.626Z,19.50
2018-07-13T08:52:08.875Z,17.75
2018-07-13T08:53:12.465Z,18.75
2018-07-13T08:54:15.411Z,14.75
2018-07-13T08:55:19.144Z,14.00
2018-07-13T08:56:25.061Z,14.00
2018-07-13T08:57:27.899Z,14.00
2018-07-13T08:58:30.739Z,13.00
2018-07-13T08:59:33.968Z,11.50
2018-07-13T09:00:36.823Z,12.25
2018-07-13T09:01:40.077Z,11.75
2018-07-13T09:02:42.947Z,13.25
2018-07-13T09:03:45.953Z,13.25
2018-07-13T09:04:48.815Z,12.50
2018-07-13T09:05:51.806Z,14.50
2018-07-13T09:06:54.880Z,14.75
2018-07-13T09:07:57.719Z,15.50
2018-07-13T09:09:02.106Z,15.50
2018-07-13T09:10:06.188Z,16.75
2018-07-13T09:11:09.376Z,15.25
2018-07-13T09:12:12.200Z,12.50
2018-07-13T09:13:16.451Z,13.00
2018-07-13T09:14:19.273Z,12.25
2018-07-13T09:15:22.734Z,12.25
2018-07-13T09:16:26.723Z,14.00
2018-07-13T09:17:29.511Z,14.25
2018-07-13T09:18:32.388Z,13.00
2018-07-13T09:19:35.866Z,14.00
2018-07-13T09:20:39.863Z,11.75
2018-07-13T09:21:43.472Z,12.00
2018-07-13T09:22:46.280Z,13.00
2018-07-13T09:23:49.393Z,12.25
2018-07-13T09:24:53.603Z,11.00
2018-07-13T09:25:57.598Z,17.25
2018-07-13T09:27:01.110Z,22.75
2018-07-13T09:28:03.962Z,19.00
2018-07-13T09:29:06.793Z,50.50
2018-07-13T09:30:10.745Z,58.75
2018-07-13T09:31:13.552Z,22.25
2018-07-13T09:32:16.695Z,21.00
2018-07-13T09:33:21.167Z,15.00
2018-07-13T09:34:23.992Z,16.75
2018-07-13T09:35:27.831Z,29.75
2018-07-13T09:36:30.669Z,42.50
2018-07-13T09:37:34.344Z,17.00
2018-07-13T09:38:37.513Z,35.25
2018-07-13T09:39:40.313Z,30.25
2018-07-13T09:40:43.102Z,19.50
2018-07-13T09:41:45.909Z,15.00
2018-07-13T09:42:49.310Z,18.50
2018-07-13T09:43:52.290Z,16.25
2018-07-13T09:44:55.685Z,15.00
2018-07-13T09:45:58.532Z,14.25
2018-07-13T09:47:01.639Z,14.00
2018-07-13T09:48:04.746Z,15.50
2018-07-13T09:49:08.070Z,13.75
2018-07-13T09:50:12.551Z,13.00
2018-07-13T09:51:16.455Z,15.00
2018-07-13T09:52:20.067Z,14.50
2018-07-13T09:53:23.195Z,13.50
2018-07-13T09:54:26.363Z,18.50
2018-07-13T09:55:29.823Z,18.75
2018-07-13T09:56:33.681Z,17.00
2018-07-13T09:57:36.923Z,14.50
2018-07-13T09:58:39.792Z,16.00
2018-07-13T09:59:42.678Z,12.25
2018-07-13T10:00:50.308Z,16.00
2018-07-13T10:01:53.876Z,15.00
2018-07-13T10:02:57.772Z,14.00
2018-07-13T10:04:01.176Z,14.00
2018-07-13T10:05:05.444Z,15.00
2018-07-13T10:06:08.244Z,12.50
2018-07-13T10:07:12.819Z,19.75
2018-07-13T10:08:15.674Z,15.75
2018-07-13T10:09:18.670Z,13.25
2018-07-13T10:10:21.902Z,14.50
2018-07-13T10:11:24.777Z,16.25
2018-07-13T10:12:28.223Z,18.00
2018-07-13T10:13:31.095Z,18.00
2018-07-13T10:14:33.930Z,16.50
2018-07-13T10:15:36.785Z,17.50
2018-07-13T10:16:41.139Z,15.75
2018-07-13T10:17:45.370Z,16.25
2018-07-13T10:18:51.119Z,15.00
2018-07-13T10:19:55.260Z,16.25
2018-07-13T10:20:58.180Z,14.50
2018-07-13T10:22:02.298Z,14.00
2018-07-13T10:23:08.538Z,14.00
2018-07-13T10:24:11.407Z,14.75
2018-07-13T10:25:14.238Z,14.00
2018-07-13T10:26:17.089Z,14.50
2018-07-13T10:27:19.910Z,14.25
2018-07-13T10:28:22.907Z,16.00
2018-07-13T10:29:26.089Z,12.50
2018-07-13T10:30:29.011Z,14.75
2018-07-13T10:31:32.512Z,14.25
2018-07-13T10:32:37.796Z,15.00
2018-07-13T10:33:40.695Z,15.00
2018-07-13T10:34:44.263Z,14.25
2018-07-13T10:35:48.597Z,17.25
2018-07-13T10:36:54.416Z,14.00
2018-07-13T10:37:59.192Z,14.50
2018-07-13T10:39:02.570Z,12.25
2018-07-13T10:40:05.375Z,12.75
2018-07-13T10:41:09.715Z,15.25
2018-07-13T10:42:12.823Z,15.50
2018-07-13T10:43:17.122Z,13.50
2018-07-13T10:44:21.591Z,14.25
2018-07-13T10:45:24.481Z,11.75
2018-07-13T10:46:27.452Z,14.00
2018-07-13T10:47:30.801Z,10.75
2018-07-13T10:48:33.665Z,12.25
2018-07-13T10:49:36.498Z,15.75
2018-07-13T10:50:39.462Z,15.50
2018-07-13T10:51:42.281Z,17.00
2018-07-13T10:52:46.545Z,19.50
2018-07-13T10:53:49.908Z,13.25
2018-07-13T10:54:53.450Z,19.75
2018-07-13T10:55:56.340Z,18.50
2018-07-13T10:57:01.974Z,17.50
2018-07-13T10:58:04.841Z,12.00
2018-07-13T10:59:07.678Z,16.75
2018-07-13T11:00:11.835Z,15.75
2018-07-13T11:01:16.428Z,12.75
2018-07-13T11:02:19.238Z,12.75
2018-07-13T11:03:22.063Z,12.25
2018-07-13T11:04:24.948Z,13.00
2018-07-13T11:05:28.431Z,12.50
2018-07-13T11:06:32.736Z,15.00
2018-07-13T11:07:35.541Z,13.25
2018-07-13T11:08:39.564Z,11.00
2018-07-13T11:09:42.388Z,12.75
2018-07-13T11:10:46.576Z,11.50
2018-07-13T11:11:50.489Z,12.75
2018-07-13T11:12:53.818Z,11.00
2018-07-13T11:13:56.662Z,12.50
2018-07-13T11:14:59.509Z,11.75
2018-07-13T11:16:02.444Z,11.00
2018-07-13T11:17:06.119Z,13.75
2018-07-13T11:18:08.957Z,10.00
2018-07-13T11:19:12.083Z,11.75
2018-07-13T11:20:16.548Z,11.50
2018-07-13T11:21:19.313Z,11.00
2018-07-13T11:22:23.192Z,10.00
2018-07-13T11:23:26.922Z,11.75
2018-07-13T11:24:29.803Z,10.00
2018-07-13T11:25:33.381Z,10.50
2018-07-13T11:26:36.521Z,14.50
2018-07-13T11:27:39.380Z,23.00
2018-07-13T11:28:42.233Z,14.25
2018-07-13T11:29:45.430Z,12.00
2018-07-13T11:30:49.397Z,14.25
2018-07-13T11:31:52.221Z,11.75
2018-07-13T11:32:55.025Z,16.75
2018-07-13T11:33:58.042Z,10.25
2018-07-13T11:35:01.577Z,14.75
2018-07-13T11:36:04.401Z,12.50
2018-07-13T11:37:09.833Z,12.50
2018-07-13T11:38:14.604Z,12.25
2018-07-13T11:39:20.490Z,10.75
2018-07-13T11:40:24.765Z,9.25
2018-07-13T11:41:27.577Z,11.75
2018-07-13T11:42:30.361Z,11.00
2018-07-13T11:43:34.435Z,11.75
2018-07-13T11:44:37.858Z,12.25
2018-07-13T11:45:42.434Z,10.00
2018-07-13T11:46:48.915Z,14.75
2018-07-13T11:47:51.758Z,12.00
2018-07-13T11:48:54.560Z,9.00
2018-07-13T11:49:57.694Z,9.25
2018-07-13T11:51:01.746Z,9.75
2018-07-13T11:52:04.612Z,11.00
2018-07-13T11:53:07.626Z,10.25
2018-07-13T11:54:11.444Z,10.50
2018-07-13T11:55:14.244Z,11.00
2018-07-13T11:56:18.965Z,10.00
2018-07-13T11:57:21.778Z,9.75
2018-07-13T11:58:26.408Z,9.25
2018-07-13T11:59:29.536Z,9.25
2018-07-13T12:00:32.401Z,9.00
2018-07-13T12:01:35.281Z,10.25
2018-07-13T12:02:41.468Z,11.25
2018-07-13T12:03:46.445Z,11.00
2018-07-13T12:04:49.250Z,10.50
2018-07-13T12:05:52.809Z,9.75
2018-07-13T12:06:56.491Z,8.00
2018-07-13T12:07:59.340Z,11.25
2018-07-13T12:09:02.616Z,9.00
2018-07-13T12:10:05.441Z,9.25
2018-07-13T12:11:08.383Z,8.75
2018-07-13T12:12:11.834Z,9.75
2018-07-13T12:13:14.614Z,10.75
2018-07-13T12:14:17.485Z,8.00
2018-07-13T12:15:20.254Z,9.50
2018-07-13T12:16:29.384Z,10.00
2018-07-13T12:17:35.981Z,9.25
2018-07-13T12:18:39.971Z,11.50
2018-07-13T12:19:43.371Z,9.25
2018-07-13T12:20:48.263Z,10.00
2018-07-13T12:21:52.916Z,10.00
2018-07-13T12:22:59.451Z,11.25
2018-07-13T12:24:05.291Z,11.00
2018-07-13T12:25:15.118Z,11.50
2018-07-13T12:26:20.739Z,10.75
2018-07-13T12:30:05.226Z,10.00
2018-07-13T12:32:17.518Z,8.00
2018-07-13T12:33:22.739Z,8.50
2018-07-13T12:34:26.205Z,8.00
2018-07-13T12:35:31.209Z,9.00
2018-07-13T12:36:38.881Z,9.00
2018-07-13T12:37:46.684Z,8.25
2018-07-13T12:38:54.752Z,9.00
2018-07-13T12:40:05.701Z,8.75
2018-07-13T12:41:10.727Z,10.00
2018-07-13T12:42:21.040Z,8.75
2018-07-13T12:43:27.204Z,7.50
2018-07-13T12:44:34.718Z,9.00
2018-07-13T12:45:41.103Z,9.50
2018-07-13T12:46:45.878Z,9.00
2018-07-13T12:47:55.118Z,9.50
2018-07-13T12:49:00.493Z,7.25
2018-07-13T12:50:06.099Z,8.25
2018-07-13T12:51:09.703Z,8.75
2018-07-13T12:52:13.578Z,9.00
2018-07-13T12:53:18.029Z,9.50
2018-07-13T12:54:20.840Z,19.75
2018-07-13T12:55:23.835Z,15.75
2018-07-13T12:56:27.710Z,9.50
2018-07-13T12:57:32.427Z,10.50
2018-07-13T12:58:35.227Z,8.50
2018-07-13T12:59:38.724Z,9.00
2018-07-13T13:00:44.669Z,10.00
2018-07-13T13:01:51.136Z,8.50
2018-07-13T13:02:55.330Z,9.00
2018-07-13T13:04:02.513Z,8.00
2018-07-13T13:05:06.861Z,8.00
2018-07-13T13:06:11.805Z,9.00
2018-07-13T13:07:14.781Z,8.50
2018-07-13T13:08:18.581Z,9.00
2018-07-13T13:09:22.660Z,8.00
2018-07-13T13:10:27.070Z,9.50
2018-07-13T13:11:31.054Z,9.75
2018-07-13T13:12:34.882Z,8.00
2018-07-13T13:13:38.589Z,9.25
2018-07-13T13:14:41.560Z,9.00
2018-07-13T13:15:46.717Z,9.00
2018-07-13T13:16:51.652Z,11.50
2018-07-13T13:17:56.261Z,10.00
2018-07-13T13:19:00.497Z,10.00
2018-07-13T13:20:04.260Z,8.25
2018-07-13T13:21:14.321Z,11.00
2018-07-13T13:22:17.950Z,9.00
2018-07-13T13:23:24.116Z,8.75
2018-07-13T13:24:29.545Z,10.25
2018-07-13T13:25:38.742Z,9.25
2018-07-13T13:26:44.382Z,12.00
2018-07-13T13:27:49.268Z,8.25
2018-07-13T13:28:52.948Z,9.00
2018-07-13T13:29:59.232Z,9.25
2018-07-13T13:31:02.812Z,9.75
2018-07-13T13:33:23.431Z,9.25
2018-07-13T13:34:28.356Z,9.00
2018-07-13T13:35:33.129Z,8.25
2018-07-13T13:36:37.623Z,9.00
2018-07-13T13:37:41.554Z,9.75
2018-07-13T13:38:49.496Z,9.50
2018-07-13T13:39:54.976Z,10.00
2018-07-13T13:40:58.832Z,10.00
2018-07-13T13:42:01.618Z,12.50
2018-07-13T13:43:04.781Z,14.75
2018-07-13T13:44:08.081Z,14.00
2018-07-13T13:45:11.381Z,13.25
2018-07-13T13:46:17.606Z,11.75